createdAt,value
2019-05-10T00:00:05.934Z,9.00
2019-05-10T00:01:01.824Z,8.00
2019-05-10T00:01:56.763Z,8.75
2019-05-10T00:02:52.903Z,20.60
2019-05-10T00:03:47.661Z,8.83
2019-05-10T00:04:42.182Z,21.02
2019-05-10T00:05:37.116Z,8.30
2019-05-10T00:06:32.048Z,8.38
2019-05-10T00:07:26.981Z,26.68
2019-05-10T00:08:25.247Z,9.00
2019-05-10T00:09:03.881Z,8.43
2019-05-10T00:09:40.314Z,9.40
2019-05-10T00:10:16.710Z,9.58
2019-05-10T00:11:10.178Z,8.75
2019-05-10T00:12:09.326Z,9.60
2019-05-10T00:13:18.002Z,8.70
2019-05-10T00:14:03.290Z,8.80
2019-05-10T00:14:57.804Z,18.35
2019-05-10T00:15:37.365Z,8.90
2019-05-10T00:16:15.805Z,8.45
2019-05-10T00:16:59.563Z,9.53
2019-05-10T00:17:39.920Z,53.85
2019-05-10T00:18:18.406Z,12.63
2019-05-10T00:18:57.066Z,9.25
2019-05-10T00:19:35.702Z,8.60
2019-05-10T00:20:14.270Z,8.95
2019-05-10T00:20:54.663Z,9.15
2019-05-10T00:21:33.258Z,9.43
2019-05-10T00:22:11.869Z,9.63
2019-05-10T00:22:52.310Z,8.60
2019-05-10T00:23:38.989Z,8.90
2019-05-10T00:24:18.935Z,9.23
2019-05-10T00:25:04.319Z,8.90
2019-05-10T00:25:38.682Z,8.65
2019-05-10T00:26:17.614Z,8.60
2019-05-10T00:26:56.450Z,8.28
2019-05-10T00:27:36.122Z,9.20
2019-05-10T00:28:15.509Z,9.75
2019-05-10T00:28:53.859Z,9.08
2019-05-10T00:29:34.782Z,8.50
2019-05-10T00:30:13.372Z,138.30
2019-05-10T00:30:51.968Z,8.63
2019-05-10T00:31:30.325Z,8.05
2019-05-10T00:32:08.897Z,8.28
2019-05-10T00:32:47.459Z,8.53
2019-05-10T00:33:26.018Z,50.50
2019-05-10T00:34:04.633Z,38.20
2019-05-10T00:34:43.235Z,9.23
2019-05-10T00:35:21.836Z,20.02
2019-05-10T00:36:00.383Z,8.23
2019-05-10T00:36:38.711Z,59.70
2019-05-10T00:37:17.258Z,8.08
2019-05-10T00:37:55.818Z,9.38
2019-05-10T00:38:35.379Z,139.18
2019-05-10T00:39:15.178Z,93.17
2019-05-10T00:39:53.715Z,7.67
2019-05-10T00:40:32.260Z,8.15
2019-05-10T00:41:10.832Z,118.85
2019-05-10T00:41:49.227Z,10.23
2019-05-10T00:42:27.800Z,7.55
2019-05-10T00:43:06.342Z,12.47
2019-05-10T00:43:45.079Z,127.72
2019-05-10T00:44:23.438Z,93.20
2019-05-10T00:45:02.101Z,9.25
2019-05-10T00:45:40.702Z,9.25
2019-05-10T00:46:19.238Z,32.53
2019-05-10T00:46:57.703Z,74.97
2019-05-10T00:47:36.215Z,8.30
2019-05-10T00:48:15.374Z,8.35
2019-05-10T00:48:53.929Z,7.22
2019-05-10T00:49:32.329Z,8.23
2019-05-10T00:50:11.050Z,7.95
2019-05-10T00:50:51.082Z,7.25
2019-05-10T00:51:29.623Z,7.67
2019-05-10T00:52:08.039Z,7.78
2019-05-10T00:52:46.543Z,7.50
2019-05-10T00:53:26.437Z,7.78
2019-05-10T00:54:05.094Z,7.50
2019-05-10T00:54:43.494Z,8.60
2019-05-10T00:55:22.074Z,8.20
2019-05-10T00:56:00.657Z,7.60
2019-05-10T00:56:39.358Z,8.50
2019-05-10T00:57:17.743Z,7.40
2019-05-10T00:57:57.134Z,8.70
2019-05-10T00:58:36.918Z,8.65
2019-05-10T00:59:16.630Z,8.18
2019-05-10T00:59:55.025Z,8.05
2019-05-10T01:00:33.663Z,8.68
2019-05-10T01:01:12.258Z,8.65
2019-05-10T01:01:50.759Z,8.10
2019-05-10T01:02:29.123Z,7.95
2019-05-10T01:03:07.670Z,8.35
2019-05-10T01:03:47.244Z,7.78
2019-05-10T01:04:25.886Z,9.13
2019-05-10T01:05:04.862Z,8.60
2019-05-10T01:05:43.448Z,7.95
2019-05-10T01:06:22.071Z,8.23
2019-05-10T01:07:00.782Z,7.15
2019-05-10T01:07:39.138Z,7.50
2019-05-10T01:08:17.694Z,7.45
2019-05-10T01:08:56.203Z,8.85
2019-05-10T01:09:35.234Z,8.15
2019-05-10T01:10:13.681Z,7.83
2019-05-10T01:10:52.247Z,7.80
2019-05-10T01:11:30.771Z,7.55
2019-05-10T01:12:10.535Z,8.43
2019-05-10T01:12:48.879Z,8.43
2019-05-10T01:13:27.408Z,8.45
2019-05-10T01:14:09.043Z,7.85
2019-05-10T01:14:47.597Z,7.05
2019-05-10T01:15:25.942Z,8.25
2019-05-10T01:16:04.458Z,8.23
2019-05-10T01:16:42.966Z,7.80
2019-05-10T01:17:21.510Z,7.05
2019-05-10T01:18:00.642Z,7.58
2019-05-10T01:18:39.286Z,8.40
2019-05-10T01:19:17.850Z,7.95
2019-05-10T01:19:56.531Z,7.70
2019-05-10T01:20:35.101Z,8.13
2019-05-10T01:21:13.689Z,8.00
2019-05-10T01:21:52.226Z,8.43
2019-05-10T01:22:30.770Z,8.03
2019-05-10T01:23:09.125Z,8.48
2019-05-10T01:23:47.667Z,7.28
2019-05-10T01:24:26.202Z,7.70
2019-05-10T01:25:04.709Z,8.25
2019-05-10T01:25:43.033Z,7.60
2019-05-10T01:26:21.545Z,8.33
2019-05-10T01:27:00.513Z,8.95
2019-05-10T01:27:39.156Z,7.40
2019-05-10T01:28:17.551Z,8.08
2019-05-10T01:28:57.381Z,7.55
2019-05-10T01:29:35.985Z,8.25
2019-05-10T01:30:14.544Z,7.40
2019-05-10T01:30:52.924Z,11.50
2019-05-10T01:31:31.516Z,7.65
2019-05-10T01:32:10.218Z,8.10
2019-05-10T01:32:48.724Z,8.50
2019-05-10T01:33:27.082Z,7.72
2019-05-10T01:34:05.851Z,8.48
2019-05-10T01:34:44.335Z,7.53
2019-05-10T01:35:22.852Z,8.03
2019-05-10T01:36:02.939Z,7.85
2019-05-10T01:36:41.470Z,7.55
2019-05-10T01:37:20.002Z,7.55
2019-05-10T01:37:58.511Z,7.47
2019-05-10T01:38:37.011Z,8.43
2019-05-10T01:39:15.590Z,8.15
2019-05-10T01:39:54.123Z,7.40
2019-05-10T01:40:32.672Z,8.05
2019-05-10T01:41:11.005Z,7.78
2019-05-10T01:41:49.588Z,9.73
2019-05-10T01:42:28.112Z,7.78
2019-05-10T01:43:06.702Z,7.78
2019-05-10T01:43:45.054Z,19.90
2019-05-10T01:44:23.598Z,10.05
2019-05-10T01:45:02.137Z,8.45
2019-05-10T01:45:40.636Z,8.00
2019-05-10T01:46:19.014Z,8.15
2019-05-10T01:46:57.568Z,8.98
2019-05-10T01:47:36.144Z,28.15
2019-05-10T01:48:15.260Z,9.75
2019-05-10T01:48:53.688Z,9.65
2019-05-10T01:49:32.230Z,22.40
2019-05-10T01:50:10.871Z,8.00
2019-05-10T01:50:49.461Z,8.75
2019-05-10T01:51:30.255Z,8.38
2019-05-10T01:52:08.783Z,9.03
2019-05-10T01:52:47.338Z,7.97
2019-05-10T01:53:25.897Z,9.10
2019-05-10T01:54:04.369Z,8.58
2019-05-10T01:54:42.948Z,8.68
2019-05-10T01:55:21.430Z,9.30
2019-05-10T01:56:00.062Z,34.30
2019-05-10T01:56:38.499Z,8.03
2019-05-10T01:57:17.047Z,9.13
2019-05-10T01:57:55.670Z,8.13
2019-05-10T01:58:34.207Z,30.77
2019-05-10T01:59:12.590Z,8.45
2019-05-10T01:59:51.142Z,8.48
2019-05-10T02:00:29.702Z,7.85
2019-05-10T02:01:08.257Z,8.68
2019-05-10T02:01:46.722Z,8.25
2019-05-10T02:02:25.266Z,8.60
2019-05-10T02:03:03.826Z,8.80
2019-05-10T02:03:42.410Z,8.88
2019-05-10T02:04:22.106Z,8.25
2019-05-10T02:05:00.650Z,9.45
2019-05-10T02:05:39.212Z,9.18
2019-05-10T02:06:17.761Z,9.30
2019-05-10T02:06:56.108Z,88.82
2019-05-10T02:07:34.668Z,108.22
2019-05-10T02:08:13.215Z,9.40
2019-05-10T02:08:51.755Z,47.10
2019-05-10T02:09:33.321Z,28.60
2019-05-10T02:10:12.002Z,21.75
2019-05-10T02:10:50.641Z,139.30
2019-05-10T02:11:29.171Z,13.10
2019-05-10T02:12:07.567Z,8.50
2019-05-10T02:12:46.127Z,17.70
2019-05-10T02:13:24.674Z,9.70
2019-05-10T02:14:03.243Z,109.90
2019-05-10T02:14:42.034Z,8.00
2019-05-10T02:15:20.635Z,8.55
2019-05-10T02:15:59.130Z,7.62
2019-05-10T02:16:37.658Z,8.70
2019-05-10T02:17:16.127Z,8.60
2019-05-10T02:17:54.701Z,7.90
2019-05-10T02:18:33.251Z,9.63
2019-05-10T02:19:12.473Z,9.13
2019-05-10T02:19:50.839Z,9.90
2019-05-10T02:20:29.378Z,88.60
2019-05-10T02:21:07.906Z,9.03
2019-05-10T02:21:46.454Z,8.50
2019-05-10T02:22:26.026Z,8.48
2019-05-10T02:23:04.588Z,8.05
2019-05-10T02:23:43.420Z,9.30
2019-05-10T02:24:21.978Z,8.63
2019-05-10T02:25:00.354Z,9.70
2019-05-10T02:25:38.866Z,9.78
2019-05-10T02:26:17.553Z,229.32
2019-05-10T02:26:56.086Z,30.55
2019-05-10T02:27:34.475Z,8.80
2019-05-10T02:28:15.483Z,10.03
2019-05-10T02:28:54.138Z,81.63
2019-05-10T02:29:32.702Z,10.82
2019-05-10T02:30:11.109Z,11.08
2019-05-10T02:30:49.646Z,8.50
2019-05-10T02:31:30.583Z,8.73
2019-05-10T02:32:09.140Z,47.38
2019-05-10T02:32:47.497Z,8.75
2019-05-10T02:33:26.033Z,11.53
2019-05-10T02:34:04.767Z,9.63
2019-05-10T02:34:44.827Z,9.03
2019-05-10T02:35:23.287Z,7.40
2019-05-10T02:36:01.875Z,7.87
2019-05-10T02:36:40.523Z,9.30
2019-05-10T02:37:19.031Z,7.60
2019-05-10T02:37:57.421Z,8.10
2019-05-10T02:38:35.945Z,8.87
2019-05-10T02:39:14.493Z,8.15
2019-05-10T02:39:53.195Z,7.92
2019-05-10T02:40:31.590Z,8.08
2019-05-10T02:41:10.248Z,8.40
2019-05-10T02:41:48.808Z,7.65
2019-05-10T02:42:27.355Z,8.43
2019-05-10T02:43:05.702Z,9.10
2019-05-10T02:43:44.231Z,8.03
2019-05-10T02:44:22.773Z,7.83
2019-05-10T02:45:01.290Z,8.13
2019-05-10T02:45:39.675Z,10.48
2019-05-10T02:46:18.212Z,8.73
2019-05-10T02:46:56.757Z,62.62
2019-05-10T02:47:35.321Z,12.25
2019-05-10T02:48:13.686Z,11.15
2019-05-10T02:48:52.287Z,8.70
2019-05-10T02:49:31.207Z,8.28
2019-05-10T02:50:11.177Z,25.85
2019-05-10T02:50:49.547Z,7.85
2019-05-10T02:51:28.112Z,7.20
2019-05-10T02:52:06.689Z,8.48
2019-05-10T02:52:45.257Z,13.93
2019-05-10T02:53:23.612Z,7.80
2019-05-10T02:54:02.525Z,35.33
2019-05-10T02:54:41.121Z,12.03
2019-05-10T02:55:20.238Z,16.77
2019-05-10T02:55:58.626Z,7.00
2019-05-10T02:56:37.236Z,8.13
2019-05-10T02:57:15.789Z,7.25
2019-05-10T02:57:55.515Z,7.85
2019-05-10T02:58:35.434Z,8.50
2019-05-10T02:59:14.047Z,32.65
2019-05-10T02:59:52.607Z,8.78
2019-05-10T03:00:31.242Z,7.15
2019-05-10T03:01:10.125Z,45.67
2019-05-10T03:01:52.158Z,8.10
2019-05-10T03:02:30.821Z,7.92
2019-05-10T03:03:10.590Z,8.58
2019-05-10T03:03:49.945Z,10.40
2019-05-10T03:04:28.598Z,7.65
2019-05-10T03:05:07.351Z,7.87
2019-05-10T03:05:48.744Z,7.33
2019-05-10T03:06:27.739Z,7.00
2019-05-10T03:07:09.065Z,7.60
2019-05-10T03:07:47.595Z,7.70
2019-05-10T03:08:26.653Z,8.13
2019-05-10T03:09:06.158Z,7.03
2019-05-10T03:09:44.785Z,6.95
2019-05-10T03:10:23.311Z,7.95
2019-05-10T03:11:02.082Z,7.50
2019-05-10T03:11:49.815Z,8.05
2019-05-10T03:12:28.991Z,6.72
2019-05-10T03:13:07.961Z,16.15
2019-05-10T03:13:47.514Z,7.15
2019-05-10T03:14:25.910Z,7.65
2019-05-10T03:15:04.454Z,85.10
2019-05-10T03:15:43.072Z,7.62
2019-05-10T03:16:22.622Z,8.60
2019-05-10T03:17:01.113Z,7.12
2019-05-10T03:17:40.250Z,9.40
2019-05-10T03:18:18.947Z,8.00
2019-05-10T03:18:57.502Z,9.10
2019-05-10T03:19:35.830Z,9.40
2019-05-10T03:20:14.398Z,9.70
2019-05-10T03:20:52.939Z,10.18
2019-05-10T03:21:32.188Z,12.50
2019-05-10T03:22:10.766Z,9.70
2019-05-10T03:22:49.316Z,20.30
2019-05-10T03:23:27.873Z,9.05
2019-05-10T03:24:06.442Z,16.70
2019-05-10T03:24:44.843Z,9.90
2019-05-10T03:25:23.458Z,45.90
2019-05-10T03:26:02.600Z,8.80
2019-05-10T03:26:51.108Z,8.07
2019-05-10T03:27:20.992Z,8.50
2019-05-10T03:27:59.549Z,39.58
2019-05-10T03:28:38.317Z,8.17
2019-05-10T03:29:16.882Z,8.23
2019-05-10T03:29:55.289Z,8.03
2019-05-10T03:30:33.842Z,7.80
2019-05-10T03:31:12.535Z,9.30
2019-05-10T03:31:51.116Z,15.90
2019-05-10T03:32:29.465Z,7.67
2019-05-10T03:33:08.019Z,7.75
2019-05-10T03:33:55.134Z,6.90
2019-05-10T03:34:26.556Z,7.78
2019-05-10T03:35:04.911Z,7.30
2019-05-10T03:35:45.949Z,55.05
2019-05-10T03:36:24.533Z,6.47
2019-05-10T03:37:03.217Z,27.75
2019-05-10T03:37:41.568Z,9.35
2019-05-10T03:38:20.214Z,181.12
2019-05-10T03:38:58.727Z,8.73
2019-05-10T03:39:37.281Z,7.25
2019-05-10T03:40:16.330Z,7.50
2019-05-10T03:40:54.862Z,7.20
2019-05-10T03:41:33.407Z,7.22
2019-05-10T03:42:11.973Z,7.53
2019-05-10T03:42:50.306Z,6.83
2019-05-10T03:43:28.865Z,6.97
2019-05-10T03:44:07.443Z,6.25
2019-05-10T03:44:45.952Z,6.80
2019-05-10T03:45:26.678Z,6.83
2019-05-10T03:46:05.726Z,6.35
2019-05-10T03:46:44.275Z,7.07
2019-05-10T03:47:22.855Z,7.30
2019-05-10T03:48:01.296Z,7.05
2019-05-10T03:48:39.883Z,6.67
2019-05-10T03:49:18.431Z,6.70
2019-05-10T03:49:56.976Z,6.78
2019-05-10T03:50:35.530Z,6.72
2019-05-10T03:51:14.085Z,7.08
2019-05-10T03:51:52.602Z,6.37
2019-05-10T03:52:31.248Z,6.53
2019-05-10T03:53:09.654Z,6.50
2019-05-10T03:53:48.238Z,9.20
2019-05-10T03:54:27.039Z,7.00
2019-05-10T03:55:05.570Z,6.87
2019-05-10T03:55:43.917Z,7.30
2019-05-10T03:56:22.475Z,17.55
2019-05-10T03:57:13.136Z,6.10
2019-05-10T03:57:41.119Z,7.17
2019-05-10T03:58:19.499Z,6.20
2019-05-10T03:58:58.427Z,6.70
2019-05-10T03:59:37.127Z,7.25
2019-05-10T04:00:15.706Z,7.53
2019-05-10T04:00:57.526Z,23.05
2019-05-10T04:01:36.134Z,126.75
2019-05-10T04:02:15.619Z,41.08
2019-05-10T04:02:54.147Z,7.08
2019-05-10T04:03:32.507Z,16.07
2019-05-10T04:04:11.039Z,7.62
2019-05-10T04:04:49.539Z,7.00
2019-05-10T04:05:28.114Z,7.58
2019-05-10T04:06:06.520Z,8.35
2019-05-10T04:06:45.708Z,11.03
2019-05-10T04:07:24.259Z,6.85
2019-05-10T04:08:02.835Z,304.80
2019-05-10T04:08:41.193Z,313.02
2019-05-10T04:09:19.734Z,338.35
2019-05-10T04:09:58.278Z,363.87
2019-05-10T04:10:36.824Z,281.77
2019-05-10T04:11:15.316Z,267.32
2019-05-10T04:11:53.923Z,316.35
2019-05-10T04:12:33.259Z,282.02
2019-05-10T04:13:12.879Z,255.57
2019-05-10T04:13:51.246Z,358.82
2019-05-10T04:14:29.805Z,389.80
2019-05-10T04:15:08.859Z,182.37
2019-05-10T04:15:48.102Z,72.92
2019-05-10T04:16:26.431Z,7.37
2019-05-10T04:17:05.105Z,7.55
2019-05-10T04:17:43.728Z,7.60
2019-05-10T04:18:22.263Z,7.75
2019-05-10T04:19:00.590Z,7.55
2019-05-10T04:19:39.174Z,6.83
2019-05-10T04:20:17.729Z,7.33
2019-05-10T04:20:56.330Z,11.10
2019-05-10T04:21:36.090Z,7.10
2019-05-10T04:22:16.419Z,40.35
2019-05-10T04:22:55.007Z,12.95
2019-05-10T04:23:33.544Z,7.10
2019-05-10T04:24:11.899Z,9.40
2019-05-10T04:24:50.444Z,17.60
2019-05-10T04:25:28.995Z,25.68
2019-05-10T04:26:10.520Z,21.12
2019-05-10T04:26:49.010Z,16.48
2019-05-10T04:27:32.303Z,12.13
2019-05-10T04:28:07.657Z,7.45
2019-05-10T04:28:48.742Z,7.95
2019-05-10T04:29:27.099Z,7.75
2019-05-10T04:30:05.721Z,8.48
2019-05-10T04:30:44.290Z,11.93
2019-05-10T04:31:22.782Z,7.67
2019-05-10T04:32:01.147Z,70.60
2019-05-10T04:32:39.726Z,7.80
2019-05-10T04:33:18.280Z,8.85
2019-05-10T04:33:56.918Z,11.10
2019-05-10T04:34:35.356Z,42.53
2019-05-10T04:35:13.933Z,8.10
2019-05-10T04:35:52.463Z,12.58
2019-05-10T04:36:31.043Z,8.28
2019-05-10T04:37:09.394Z,8.40
2019-05-10T04:37:47.982Z,13.43
2019-05-10T04:38:26.667Z,8.90
2019-05-10T04:39:05.919Z,8.18
2019-05-10T04:39:44.268Z,8.78
2019-05-10T04:40:22.786Z,8.53
2019-05-10T04:41:01.366Z,46.10
2019-05-10T04:41:40.028Z,8.20
2019-05-10T04:42:18.404Z,21.62
2019-05-10T04:42:56.940Z,18.17
2019-05-10T04:43:35.513Z,76.62
2019-05-10T04:44:14.097Z,8.50
2019-05-10T04:44:54.031Z,20.90
2019-05-10T04:45:32.767Z,8.80
2019-05-10T04:46:12.325Z,10.10
2019-05-10T04:46:50.884Z,12.58
2019-05-10T04:47:29.262Z,7.60
2019-05-10T04:48:07.850Z,27.30
2019-05-10T04:48:46.385Z,8.33
2019-05-10T04:49:24.967Z,18.35
2019-05-10T04:50:03.333Z,10.38
2019-05-10T04:50:41.882Z,7.97
2019-05-10T04:51:20.548Z,8.48
2019-05-10T04:51:59.186Z,12.03
2019-05-10T04:52:37.607Z,8.63
2019-05-10T04:53:16.295Z,7.95
2019-05-10T04:53:54.822Z,7.92
2019-05-10T04:54:33.348Z,8.28
2019-05-10T04:55:11.760Z,143.43
2019-05-10T04:55:50.320Z,347.80
2019-05-10T04:56:28.962Z,209.57
2019-05-10T04:57:07.530Z,153.00
2019-05-10T04:57:50.743Z,179.47
2019-05-10T04:58:25.919Z,114.08
2019-05-10T04:59:04.493Z,65.87
2019-05-10T04:59:44.492Z,106.12
2019-05-10T05:00:22.824Z,76.80
2019-05-10T05:01:01.388Z,190.30
2019-05-10T05:01:39.956Z,248.62
2019-05-10T05:02:22.041Z,93.25
2019-05-10T05:02:58.468Z,9.05
2019-05-10T05:03:37.007Z,45.65
2019-05-10T05:04:16.459Z,8.25
2019-05-10T05:04:57.427Z,11.08
2019-05-10T05:05:35.964Z,8.30
2019-05-10T05:06:14.572Z,8.55
2019-05-10T05:06:53.251Z,10.70
2019-05-10T05:07:31.838Z,8.28
2019-05-10T05:08:10.238Z,9.20
2019-05-10T05:08:50.825Z,9.40
2019-05-10T05:09:29.661Z,8.75
2019-05-10T05:10:08.608Z,34.53
2019-05-10T05:10:47.003Z,57.58
2019-05-10T05:11:25.540Z,15.88
2019-05-10T05:12:04.133Z,8.53
2019-05-10T05:12:42.806Z,9.83
2019-05-10T05:13:21.865Z,8.98
2019-05-10T05:14:00.430Z,63.85
2019-05-10T05:14:38.954Z,13.40
2019-05-10T05:15:17.503Z,13.93
2019-05-10T05:15:55.865Z,9.63
2019-05-10T05:16:34.416Z,89.92
2019-05-10T05:17:13.221Z,28.55
2019-05-10T05:17:51.795Z,8.88
2019-05-10T05:18:30.130Z,9.45
2019-05-10T05:19:08.726Z,11.45
2019-05-10T05:19:47.304Z,9.85
2019-05-10T05:20:26.911Z,11.53
2019-05-10T05:21:05.266Z,9.33
2019-05-10T05:21:43.842Z,9.10
2019-05-10T05:22:22.394Z,9.20
2019-05-10T05:23:01.354Z,10.05
2019-05-10T05:23:39.931Z,11.40
2019-05-10T05:24:22.883Z,10.13
2019-05-10T05:25:01.651Z,10.90
2019-05-10T05:25:41.867Z,11.88
2019-05-10T05:26:20.662Z,9.85
2019-05-10T05:27:00.571Z,9.43
2019-05-10T05:27:42.022Z,10.18
2019-05-10T05:28:23.349Z,10.32
2019-05-10T05:29:01.423Z,9.90
2019-05-10T05:29:40.138Z,28.90
2019-05-10T05:30:19.187Z,9.35
2019-05-10T05:30:57.756Z,11.03
2019-05-10T05:31:36.523Z,10.10
2019-05-10T05:32:17.928Z,12.13
2019-05-10T05:32:56.990Z,25.72
2019-05-10T05:33:35.802Z,10.25
2019-05-10T05:34:14.539Z,130.40
2019-05-10T05:34:53.319Z,10.98
2019-05-10T05:35:31.863Z,16.00
2019-05-10T05:36:10.448Z,74.25
2019-05-10T05:36:49.207Z,99.80
2019-05-10T05:37:27.968Z,11.57
2019-05-10T05:38:06.494Z,10.53
2019-05-10T05:38:47.115Z,10.65
2019-05-10T05:39:25.683Z,10.63
2019-05-10T05:40:04.411Z,29.85
2019-05-10T05:40:42.943Z,10.43
2019-05-10T05:41:21.582Z,9.93
2019-05-10T05:42:00.370Z,12.78
2019-05-10T05:42:39.100Z,10.20
2019-05-10T05:43:18.068Z,13.13
2019-05-10T05:43:56.555Z,9.60
2019-05-10T05:44:35.258Z,10.00
2019-05-10T05:45:13.963Z,10.70
2019-05-10T05:45:52.499Z,10.40
2019-05-10T05:46:31.319Z,10.72
2019-05-10T05:47:12.804Z,11.38
2019-05-10T05:47:52.072Z,11.05
2019-05-10T05:48:40.150Z,13.35
2019-05-10T05:49:10.634Z,55.88
2019-05-10T05:49:49.397Z,102.72
2019-05-10T05:50:28.186Z,173.80
2019-05-10T05:51:06.805Z,59.08
2019-05-10T05:51:45.471Z,66.95
2019-05-10T05:52:24.250Z,53.80
2019-05-10T05:53:03.014Z,38.13
2019-05-10T05:53:42.877Z,43.15
2019-05-10T05:54:22.653Z,136.95
2019-05-10T05:55:01.647Z,83.92
2019-05-10T05:55:40.390Z,64.47
2019-05-10T05:56:20.514Z,12.43
2019-05-10T05:56:59.042Z,15.65
2019-05-10T05:57:37.789Z,13.55
2019-05-10T05:58:25.619Z,43.05
2019-05-10T05:58:56.562Z,11.30
2019-05-10T05:59:35.091Z,11.70
2019-05-10T06:00:13.854Z,42.62
2019-05-10T06:00:52.552Z,11.65
2019-05-10T06:01:31.079Z,11.28
2019-05-10T06:02:09.685Z,27.05
2019-05-10T06:02:48.538Z,9.83
2019-05-10T06:03:27.869Z,11.12
2019-05-10T06:04:12.191Z,10.05
2019-05-10T06:04:47.728Z,10.13
2019-05-10T06:05:33.881Z,9.78
2019-05-10T06:06:15.501Z,10.35
2019-05-10T06:06:47.000Z,12.30
2019-05-10T06:07:31.240Z,9.28
2019-05-10T06:08:21.398Z,12.47
2019-05-10T06:08:47.573Z,8.40
2019-05-10T06:09:26.520Z,9.90
2019-05-10T06:10:10.005Z,9.08
2019-05-10T06:10:56.921Z,7.25
2019-05-10T06:11:29.662Z,57.70
2019-05-10T06:12:07.354Z,5.60
2019-05-10T06:12:50.657Z,7.42
2019-05-10T06:13:30.211Z,5.78
2019-05-10T06:14:10.607Z,66.28
2019-05-10T06:14:49.721Z,17.52
2019-05-10T06:15:28.909Z,36.93
2019-05-10T06:16:12.513Z,79.10
2019-05-10T06:16:51.394Z,5.10
2019-05-10T06:17:29.408Z,5.50
2019-05-10T06:18:09.790Z,5.30
2019-05-10T06:18:47.808Z,5.20
2019-05-10T06:19:29.365Z,4.85
2019-05-10T06:20:07.839Z,79.85
2019-05-10T06:20:47.011Z,4.25
2019-05-10T06:21:26.738Z,7.58
2019-05-10T06:22:06.994Z,5.05
2019-05-10T06:23:05.077Z,37.33
2019-05-10T06:23:29.284Z,31.55
2019-05-10T06:24:12.950Z,101.80
2019-05-10T06:24:52.380Z,64.70
2019-05-10T06:25:38.800Z,18.45
2019-05-10T06:26:14.420Z,28.52
2019-05-10T06:26:48.233Z,50.48
2019-05-10T06:27:26.908Z,4.90
2019-05-10T06:28:17.460Z,5.20
2019-05-10T06:28:58.372Z,5.10
2019-05-10T06:29:25.682Z,4.53
2019-05-10T06:30:04.390Z,5.20
2019-05-10T06:30:42.961Z,41.23
2019-05-10T06:31:21.835Z,5.15
2019-05-10T06:32:01.676Z,5.15
2019-05-10T06:32:40.387Z,6.17
2019-05-10T06:33:18.894Z,5.30
2019-05-10T06:33:57.586Z,5.70
2019-05-10T06:34:38.808Z,5.60
2019-05-10T06:35:19.404Z,5.70
2019-05-10T06:36:01.355Z,5.40
2019-05-10T06:36:40.032Z,4.80
2019-05-10T06:37:19.866Z,4.83
2019-05-10T06:37:58.725Z,5.97
2019-05-10T06:38:37.246Z,5.70
2019-05-10T06:39:15.767Z,5.53
2019-05-10T06:39:54.525Z,5.30
2019-05-10T06:40:37.573Z,5.60
2019-05-10T06:41:16.729Z,5.50
2019-05-10T06:41:56.249Z,5.80
2019-05-10T06:42:34.606Z,5.58
2019-05-10T06:43:15.801Z,5.05
2019-05-10T06:43:54.570Z,5.30
2019-05-10T06:44:33.266Z,5.15
2019-05-10T06:45:15.797Z,5.25
2019-05-10T06:45:53.827Z,5.70
2019-05-10T06:46:32.079Z,5.47
2019-05-10T06:47:11.370Z,4.78
2019-05-10T06:47:53.300Z,13.32
2019-05-10T06:48:33.699Z,37.03
2019-05-10T06:49:11.012Z,4.70
2019-05-10T06:49:52.082Z,16.55
2019-05-10T06:50:31.901Z,45.30
2019-05-10T06:51:12.329Z,4.60
2019-05-10T06:51:51.016Z,4.50
2019-05-10T06:52:33.042Z,5.12
2019-05-10T06:53:13.033Z,4.60
2019-05-10T06:53:53.626Z,4.78
2019-05-10T06:54:31.703Z,4.97
2019-05-10T06:55:10.531Z,4.33
2019-05-10T06:55:49.630Z,4.95
2019-05-10T06:56:28.199Z,21.40
2019-05-10T06:57:11.223Z,89.58
2019-05-10T06:57:50.555Z,93.62
2019-05-10T06:58:30.505Z,4.12
2019-05-10T06:59:13.465Z,7.45
2019-05-10T06:59:47.329Z,53.25
2019-05-10T07:00:26.066Z,180.65
2019-05-10T07:01:04.605Z,47.88
2019-05-10T07:01:45.962Z,3.58
2019-05-10T07:02:26.772Z,10.38
2019-05-10T07:03:03.511Z,4.20
2019-05-10T07:03:42.595Z,2.47
2019-05-10T07:04:21.137Z,14.80
2019-05-10T07:04:59.898Z,7.33
2019-05-10T07:05:38.649Z,3.77
2019-05-10T07:06:17.234Z,2.83
2019-05-10T07:06:55.780Z,2.65
2019-05-10T07:07:44.184Z,2.83
2019-05-10T07:08:20.327Z,2.87
2019-05-10T07:08:58.081Z,50.03
2019-05-10T07:10:01.632Z,2.95
2019-05-10T07:10:19.465Z,2.70
2019-05-10T07:10:57.268Z,2.65
2019-05-10T07:11:36.003Z,108.75
2019-05-10T07:12:17.910Z,2.67
2019-05-10T07:12:57.388Z,2.25
2019-05-10T07:13:40.518Z,2.35
2019-05-10T07:14:17.226Z,2.75
2019-05-10T07:14:57.831Z,82.02
2019-05-10T07:15:42.151Z,2.45
2019-05-10T07:16:24.238Z,2.80
2019-05-10T07:17:02.816Z,2.70
2019-05-10T07:17:45.172Z,2.55
2019-05-10T07:18:22.628Z,2.72
2019-05-10T07:19:00.453Z,2.62
2019-05-10T07:19:42.093Z,2.45
2019-05-10T07:20:23.568Z,2.33
2019-05-10T07:21:06.885Z,2.85
2019-05-10T07:21:44.811Z,2.52
2019-05-10T07:22:26.972Z,2.30
2019-05-10T07:23:06.301Z,188.07
2019-05-10T07:23:44.835Z,2.77
2019-05-10T07:24:25.306Z,2.77
2019-05-10T07:25:05.069Z,2.50
2019-05-10T07:25:43.878Z,2.40
2019-05-10T07:26:26.405Z,2.52
2019-05-10T07:27:05.810Z,2.98
2019-05-10T07:27:45.915Z,2.47
2019-05-10T07:28:24.649Z,2.20
2019-05-10T07:29:03.386Z,2.87
2019-05-10T07:29:46.105Z,2.60
2019-05-10T07:30:32.307Z,2.80
2019-05-10T07:31:11.032Z,1.95
2019-05-10T07:31:50.426Z,2.47
2019-05-10T07:32:29.151Z,2.70
2019-05-10T07:33:08.804Z,2.30
2019-05-10T07:33:47.549Z,2.87
2019-05-10T07:34:27.172Z,2.85
2019-05-10T07:35:05.910Z,2.50
2019-05-10T07:35:44.263Z,3.00
2019-05-10T07:36:27.162Z,2.80
2019-05-10T07:37:03.259Z,2.87
2019-05-10T07:37:42.026Z,2.98
2019-05-10T07:38:23.726Z,2.50
2019-05-10T07:39:02.845Z,2.62
2019-05-10T07:39:41.986Z,2.75
2019-05-10T07:40:20.719Z,2.62
2019-05-10T07:40:59.103Z,2.72
2019-05-10T07:41:37.809Z,3.10
2019-05-10T07:42:16.526Z,2.52
2019-05-10T07:42:55.239Z,2.95
2019-05-10T07:43:33.587Z,2.72
2019-05-10T07:44:12.808Z,3.00
2019-05-10T07:44:51.793Z,3.10
2019-05-10T07:45:30.530Z,2.60
2019-05-10T07:46:09.012Z,2.90
2019-05-10T07:46:53.961Z,3.55
2019-05-10T07:47:30.479Z,3.00
2019-05-10T07:48:10.298Z,2.65
2019-05-10T07:48:53.368Z,2.75
2019-05-10T07:49:32.556Z,2.72
2019-05-10T07:50:13.964Z,2.85
2019-05-10T07:50:52.344Z,3.08
2019-05-10T07:51:31.089Z,4.92
2019-05-10T07:52:09.810Z,4.03
2019-05-10T07:52:48.531Z,3.20
2019-05-10T07:53:28.763Z,3.70
2019-05-10T07:54:11.383Z,3.50
2019-05-10T07:54:50.099Z,3.25
2019-05-10T07:55:30.003Z,3.50
2019-05-10T07:56:08.680Z,3.30
2019-05-10T07:56:47.935Z,3.22
2019-05-10T07:57:27.047Z,3.60
2019-05-10T07:58:07.094Z,5.25
2019-05-10T07:58:45.659Z,3.58
2019-05-10T07:59:29.180Z,3.55
2019-05-10T08:00:06.174Z,3.27
2019-05-10T08:00:46.671Z,44.40
2019-05-10T08:01:32.335Z,54.48
2019-05-10T08:02:05.861Z,24.15
2019-05-10T08:02:51.209Z,272.85
2019-05-10T08:03:25.318Z,21.33
2019-05-10T08:04:04.035Z,107.85
2019-05-10T08:04:42.782Z,156.00
2019-05-10T08:05:21.506Z,3.92
2019-05-10T08:06:02.125Z,7.72
2019-05-10T08:06:47.278Z,4.65
2019-05-10T08:07:20.706Z,4.10
2019-05-10T08:07:59.442Z,4.28
2019-05-10T08:08:39.051Z,3.50
2019-05-10T08:09:19.218Z,3.55
2019-05-10T08:09:59.439Z,3.50
2019-05-10T08:10:39.402Z,3.60
2019-05-10T08:11:19.078Z,3.80
2019-05-10T08:12:03.287Z,3.40
2019-05-10T08:12:45.593Z,4.00
2019-05-10T08:13:23.314Z,3.45
2019-05-10T08:14:06.120Z,3.35
2019-05-10T08:14:44.646Z,3.50
2019-05-10T08:15:24.718Z,3.33
2019-05-10T08:16:05.246Z,3.60
2019-05-10T08:16:41.047Z,3.37
2019-05-10T08:17:21.062Z,3.50
2019-05-10T08:17:59.498Z,3.20
2019-05-10T08:18:39.825Z,2.73
2019-05-10T08:19:18.435Z,3.33
2019-05-10T08:19:57.317Z,3.25
2019-05-10T08:20:46.437Z,21.03
2019-05-10T08:21:22.258Z,3.00
2019-05-10T08:22:00.791Z,3.00
2019-05-10T08:22:41.235Z,33.17
2019-05-10T08:23:23.783Z,2.98
2019-05-10T08:24:05.208Z,3.08
2019-05-10T08:24:46.455Z,3.00
2019-05-10T08:25:19.483Z,3.20
2019-05-10T08:25:58.351Z,3.22
2019-05-10T08:26:37.058Z,3.10
2019-05-10T08:27:15.436Z,2.83
2019-05-10T08:27:55.400Z,2.92
2019-05-10T08:28:37.753Z,3.60
2019-05-10T08:29:16.906Z,2.70
2019-05-10T08:30:17.744Z,4.45
2019-05-10T08:30:52.372Z,3.37
2019-05-10T08:31:26.382Z,3.65
2019-05-10T08:32:04.571Z,3.87
2019-05-10T08:32:44.501Z,3.37
2019-05-10T08:33:24.494Z,3.40
2019-05-10T08:34:03.407Z,3.33
2019-05-10T08:34:51.723Z,3.20
2019-05-10T08:35:22.510Z,3.55
2019-05-10T08:36:04.981Z,3.67
2019-05-10T08:36:45.870Z,3.80
2019-05-10T08:37:30.462Z,3.20
2019-05-10T08:38:02.336Z,3.45
2019-05-10T08:38:46.734Z,3.27